createdAt,value
2018-03-26T00:01:30.392Z,15.27
2018-03-26T00:03:58.013Z,16.50
2018-03-26T00:06:25.627Z,14.73
2018-03-26T00:08:53.284Z,15.50
2018-03-26T00:11:20.897Z,15.77
2018-03-26T00:13:48.515Z,15.70
2018-03-26T00:16:16.919Z,16.53
2018-03-26T00:18:44.686Z,14.73
2018-03-26T00:21:12.459Z,16.37
2018-03-26T00:23:40.081Z,15.97
2018-03-26T00:26:08.445Z,15.97
2018-03-26T00:28:36.118Z,16.90
2018-03-26T00:31:03.721Z,17.47
2018-03-26T00:33:31.367Z,15.20
2018-03-26T00:35:59.746Z,15.63
2018-03-26T00:38:28.489Z,18.00
2018-03-26T00:40:56.086Z,16.80
2018-03-26T00:43:23.898Z,17.07
2018-03-26T00:45:51.540Z,15.70
2018-03-26T00:50:53.999Z,16.00
2018-03-26T00:53:33.472Z,16.03
2018-03-26T00:56:01.864Z,13.93
2018-03-26T00:58:30.241Z,17.20
2018-03-26T01:00:58.606Z,14.40
2018-03-26T01:03:26.240Z,14.90
2018-03-26T01:05:53.852Z,15.63
2018-03-26T01:08:22.584Z,13.67
2018-03-26T01:10:50.180Z,14.30
2018-03-26T01:13:18.548Z,15.80
2018-03-26T01:15:46.186Z,16.23
2018-03-26T01:18:13.974Z,16.90
2018-03-26T01:20:41.540Z,16.20
2018-03-26T01:23:12.049Z,16.63
2018-03-26T01:25:39.746Z,16.80
2018-03-26T01:28:07.338Z,15.90
2018-03-26T01:30:34.989Z,17.63
2018-03-26T01:33:02.619Z,15.63
2018-03-26T01:35:30.287Z,18.33
2018-03-26T01:37:57.886Z,16.27
2018-03-26T01:40:25.480Z,17.40
2018-03-26T01:42:53.856Z,15.67
2018-03-26T01:45:21.500Z,18.93
2018-03-26T01:47:49.086Z,15.00
2018-03-26T01:50:16.746Z,16.43
2018-03-26T01:52:45.832Z,16.77
2018-03-26T01:55:13.588Z,17.30
2018-03-26T01:57:41.227Z,16.20
2018-03-26T02:00:08.832Z,18.17
2018-03-26T02:02:36.417Z,15.90
2018-03-26T02:05:04.804Z,16.60
2018-03-26T02:07:32.427Z,16.67
2018-03-26T02:10:00.030Z,18.03
2018-03-26T02:12:27.845Z,17.83
2018-03-26T02:14:55.421Z,18.57
2018-03-26T02:17:23.381Z,17.07
2018-03-26T02:19:50.986Z,17.93
2018-03-26T02:22:18.693Z,20.50
2018-03-26T02:24:47.061Z,19.10
2018-03-26T02:27:14.666Z,20.37
2018-03-26T02:29:42.291Z,19.10
2018-03-26T02:32:09.989Z,19.33
2018-03-26T02:34:37.894Z,18.10
2018-03-26T02:37:05.558Z,16.83
2018-03-26T02:39:33.219Z,20.37
2018-03-26T02:42:00.834Z,17.60
2018-03-26T02:44:29.202Z,15.93
2018-03-26T02:46:57.588Z,17.40
2018-03-26T02:49:25.193Z,18.47
2018-03-26T02:51:52.804Z,17.83
2018-03-26T02:54:20.388Z,16.93
2018-03-26T02:56:48.108Z,17.97
2018-03-26T02:59:15.745Z,19.67
2018-03-26T03:01:44.103Z,18.00
2018-03-26T03:04:11.761Z,17.47
2018-03-26T03:06:39.362Z,16.63
2018-03-26T03:09:07.772Z,18.20
2018-03-26T03:11:35.482Z,17.10
2018-03-26T03:14:03.817Z,17.43
2018-03-26T03:16:31.446Z,15.83
2018-03-26T03:18:59.845Z,19.17
2018-03-26T03:21:28.225Z,16.80
2018-03-26T03:23:56.581Z,18.20
2018-03-26T03:26:24.623Z,17.10
2018-03-26T03:28:52.202Z,18.00
2018-03-26T03:31:19.953Z,16.53
2018-03-26T03:33:47.809Z,17.37
2018-03-26T03:36:15.401Z,17.00
2018-03-26T03:38:43.033Z,18.50
2018-03-26T03:41:11.381Z,18.53
2018-03-26T03:43:39.319Z,17.97
2018-03-26T03:46:06.913Z,17.70
2018-03-26T03:48:34.627Z,18.63
2018-03-26T03:51:02.244Z,16.03
2018-03-26T03:53:29.830Z,17.37
2018-03-26T03:55:58.214Z,17.60
2018-03-26T03:58:26.587Z,18.10
2018-03-26T04:00:54.486Z,16.90
2018-03-26T04:03:22.080Z,17.47
2018-03-26T04:05:49.671Z,18.73
2018-03-26T04:08:17.417Z,16.27
2018-03-26T04:10:45.016Z,17.07
2018-03-26T04:13:14.129Z,15.80
2018-03-26T04:15:41.730Z,17.60
2018-03-26T04:18:09.351Z,15.60
2018-03-26T04:20:37.051Z,15.50
2018-03-26T04:23:04.645Z,16.57
2018-03-26T04:25:32.265Z,16.27
2018-03-26T04:28:00.651Z,16.77
2018-03-26T04:30:29.035Z,17.60
2018-03-26T04:32:57.417Z,16.43
2018-03-26T04:35:25.803Z,17.90
2018-03-26T04:37:54.257Z,16.03
2018-03-26T04:40:21.861Z,16.63
2018-03-26T04:42:49.500Z,17.67
2018-03-26T04:45:17.106Z,16.47
2018-03-26T04:47:44.865Z,17.50
2018-03-26T04:50:12.654Z,16.70
2018-03-26T04:52:40.240Z,18.00
2018-03-26T04:55:08.112Z,19.13
2018-03-26T04:57:35.928Z,15.30
2018-03-26T05:00:04.296Z,16.47
2018-03-26T05:02:32.020Z,17.50
2018-03-26T05:04:59.610Z,18.90
2018-03-26T05:07:27.227Z,17.47
2018-03-26T05:09:54.813Z,17.63
2018-03-26T05:12:22.466Z,18.13
2018-03-26T05:14:50.084Z,15.47
2018-03-26T05:17:17.685Z,16.87
2018-03-26T05:19:45.289Z,16.23
2018-03-26T05:22:12.885Z,18.17
2018-03-26T05:24:40.525Z,17.20
2018-03-26T05:27:08.247Z,16.27
2018-03-26T05:29:35.902Z,17.50
2018-03-26T05:32:04.293Z,17.10
2018-03-26T05:34:32.675Z,50.10
2018-03-26T05:37:01.053Z,42.47
2018-03-26T05:39:29.423Z,26.20
2018-03-26T05:41:57.058Z,22.77
2018-03-26T05:44:24.668Z,22.10
2018-03-26T05:46:53.141Z,23.53
2018-03-26T05:49:20.746Z,20.63
2018-03-26T05:51:48.356Z,16.77
2018-03-26T05:54:16.312Z,18.37
2018-03-26T05:56:43.927Z,17.73
2018-03-26T05:59:11.529Z,19.20
2018-03-26T06:01:39.154Z,18.87
2018-03-26T06:04:07.507Z,16.07
2018-03-26T06:06:35.146Z,17.00
2018-03-26T06:09:02.746Z,25.67
2018-03-26T06:11:31.899Z,20.63
2018-03-26T06:13:59.506Z,17.60
2018-03-26T06:16:27.114Z,17.73
2018-03-26T06:18:55.486Z,16.70
2018-03-26T06:21:23.855Z,17.47
2018-03-26T06:23:52.237Z,16.30
2018-03-26T06:26:19.830Z,17.40
2018-03-26T06:28:47.571Z,18.23
2018-03-26T06:31:15.971Z,18.30
2018-03-26T06:33:44.432Z,18.20
2018-03-26T06:36:31.730Z,21.03
2018-03-26T06:39:00.190Z,18.33
2018-03-26T06:41:27.788Z,19.47
2018-03-26T06:43:55.409Z,18.40
2018-03-26T06:46:22.999Z,17.30
2018-03-26T06:48:50.958Z,17.23
2018-03-26T06:51:18.822Z,15.47
2018-03-26T06:53:46.451Z,17.03
2018-03-26T06:56:14.848Z,17.60
2018-03-26T06:58:43.411Z,16.97
2018-03-26T07:01:11.060Z,15.90
2018-03-26T07:03:38.658Z,16.17
2018-03-26T07:06:07.033Z,17.10
2018-03-26T07:08:34.636Z,16.20
2018-03-26T07:11:02.266Z,16.20
2018-03-26T07:13:29.896Z,18.30
2018-03-26T07:15:57.490Z,17.37
2018-03-26T07:18:25.423Z,16.20
2018-03-26T07:20:54.776Z,15.33
2018-03-26T07:23:22.379Z,17.40
2018-03-26T07:25:50.030Z,18.33
2018-03-26T07:28:17.616Z,17.87
2018-03-26T07:30:45.247Z,19.70
2018-03-26T07:33:13.732Z,17.17
2018-03-26T07:35:42.353Z,18.93
2018-03-26T07:38:09.952Z,17.27
2018-03-26T07:40:37.575Z,18.67
2018-03-26T07:43:05.171Z,16.87
2018-03-26T07:45:32.788Z,18.37
2018-03-26T07:48:01.149Z,18.73
2018-03-26T07:50:28.770Z,19.23
2018-03-26T07:52:56.353Z,19.87
2018-03-26T07:55:23.943Z,20.10
2018-03-26T07:57:51.693Z,21.50
2018-03-26T08:00:19.305Z,20.20
2018-03-26T08:02:47.672Z,23.10
2018-03-26T08:05:15.272Z,23.60
2018-03-26T08:07:43.207Z,21.80
2018-03-26T08:10:10.800Z,20.63
2018-03-26T08:12:38.392Z,22.33
2018-03-26T08:15:06.005Z,22.00
2018-03-26T08:17:33.657Z,22.07
2018-03-26T08:20:02.794Z,22.10
2018-03-26T08:22:30.423Z,22.07
2018-03-26T08:24:58.020Z,21.60
2018-03-26T08:27:26.428Z,20.63
2018-03-26T08:29:54.120Z,23.43
2018-03-26T08:32:21.818Z,22.30
2018-03-26T08:34:49.423Z,24.03
2018-03-26T08:37:17.054Z,19.50
2018-03-26T08:39:46.091Z,20.03
2018-03-26T08:42:13.700Z,21.10
2018-03-26T08:44:41.315Z,20.67
2018-03-26T08:47:08.945Z,21.03
2018-03-26T08:49:36.573Z,24.07
2018-03-26T08:52:04.151Z,21.87
2018-03-26T08:54:31.891Z,22.77
2018-03-26T08:56:59.600Z,22.53
2018-03-26T08:59:27.196Z,22.40
2018-03-26T09:01:55.600Z,22.87
2018-03-26T09:04:23.216Z,24.47
2018-03-26T09:06:51.595Z,22.93
2018-03-26T09:09:19.203Z,21.77
2018-03-26T09:11:47.921Z,21.27
2018-03-26T09:14:15.511Z,22.97
2018-03-26T09:16:43.096Z,23.70
2018-03-26T09:19:10.720Z,22.27
2018-03-26T09:21:38.296Z,32.13
2018-03-26T09:24:05.907Z,21.33
2018-03-26T09:26:34.290Z,21.20
2018-03-26T09:29:02.712Z,17.37
2018-03-26T09:31:30.308Z,20.70
2018-03-26T09:33:57.910Z,20.03
2018-03-26T09:36:26.302Z,18.40
2018-03-26T09:38:53.926Z,21.57
2018-03-26T09:41:21.540Z,20.20
2018-03-26T09:43:49.142Z,19.37
2018-03-26T09:46:16.753Z,20.17
2018-03-26T09:48:45.117Z,20.80
2018-03-26T09:51:13.606Z,21.30
2018-03-26T09:53:41.225Z,19.20
2018-03-26T09:56:08.843Z,22.03
2018-03-26T09:58:37.264Z,20.47
2018-03-26T10:01:04.909Z,20.70
2018-03-26T10:03:33.351Z,20.10
2018-03-26T10:06:00.942Z,18.73
2018-03-26T10:08:28.613Z,19.77
2018-03-26T10:10:56.215Z,20.53
2018-03-26T10:13:23.789Z,20.93
2018-03-26T10:15:51.518Z,20.47
2018-03-26T10:18:19.885Z,21.80
2018-03-26T10:20:47.511Z,20.87
2018-03-26T10:23:15.108Z,19.97
2018-03-26T10:25:44.216Z,21.77
2018-03-26T10:28:11.931Z,20.37
2018-03-26T10:30:39.566Z,20.50
2018-03-26T10:33:07.936Z,22.43
2018-03-26T10:35:35.546Z,22.20
2018-03-26T10:38:03.180Z,21.57
2018-03-26T10:40:31.571Z,24.10
2018-03-26T10:42:59.954Z,21.83
2018-03-26T10:45:28.326Z,20.63
2018-03-26T10:47:56.697Z,23.67
2018-03-26T10:50:24.381Z,23.90
2018-03-26T10:52:52.757Z,23.40
2018-03-26T10:55:21.106Z,23.53
2018-03-26T10:57:48.701Z,25.17
2018-03-26T11:00:16.321Z,24.73
2018-03-26T11:02:43.938Z,24.33
2018-03-26T11:05:12.322Z,22.47
2018-03-26T11:07:40.694Z,22.93
2018-03-26T11:10:08.355Z,23.87
2018-03-26T11:12:35.940Z,24.10
2018-03-26T11:15:04.335Z,25.70
2018-03-26T11:17:32.783Z,23.73
2018-03-26T11:20:00.412Z,25.10
2018-03-26T11:22:28.052Z,24.27
2018-03-26T11:24:56.424Z,25.33
2018-03-26T11:27:24.862Z,23.77
2018-03-26T11:29:52.465Z,23.43
2018-03-26T11:32:20.074Z,23.43
2018-03-26T11:34:47.685Z,24.27
2018-03-26T11:37:15.312Z,25.93
2018-03-26T11:39:42.931Z,24.27
2018-03-26T11:42:11.326Z,23.17
2018-03-26T11:44:39.748Z,23.87
2018-03-26T11:47:07.356Z,71.40
2018-03-26T11:49:35.035Z,23.50
2018-03-26T11:52:02.748Z,23.57
2018-03-26T11:54:30.374Z,23.90
2018-03-26T11:56:58.739Z,24.17
2018-03-26T11:59:26.390Z,23.53
2018-03-26T12:01:55.757Z,25.17
2018-03-26T12:04:23.381Z,26.00
2018-03-26T12:06:51.869Z,25.00
2018-03-26T12:09:19.492Z,24.67
2018-03-26T12:11:47.083Z,27.00
2018-03-26T12:14:14.683Z,26.40
2018-03-26T12:16:43.045Z,23.37
2018-03-26T12:19:10.672Z,28.30
2018-03-26T12:21:38.359Z,24.20
2018-03-26T12:24:18.334Z,26.53
2018-03-26T12:26:46.700Z,25.87
2018-03-26T12:29:26.601Z,25.13
2018-03-26T12:31:54.216Z,26.33
2018-03-26T12:34:34.071Z,22.80
2018-03-26T12:37:02.494Z,24.53
2018-03-26T12:39:30.100Z,26.07
2018-03-26T12:41:57.716Z,27.20
2018-03-26T12:47:32.416Z,26.20
2018-03-26T12:50:00.786Z,25.37
2018-03-26T12:52:40.304Z,27.07
2018-03-26T12:55:07.897Z,25.33
2018-03-26T12:57:47.543Z,23.27
2018-03-26T13:00:15.147Z,21.77
2018-03-26T13:02:42.793Z,20.50
2018-03-26T13:05:11.165Z,24.57
2018-03-26T13:07:39.585Z,22.53
2018-03-26T13:10:07.177Z,24.13
2018-03-26T13:12:34.764Z,24.10
2018-03-26T13:15:03.193Z,21.00
2018-03-26T13:17:30.792Z,23.90
2018-03-26T13:19:58.434Z,25.13
2018-03-26T13:22:26.031Z,26.60
2018-03-26T13:24:53.893Z,25.67
2018-03-26T13:27:21.484Z,26.50
2018-03-26T13:29:49.077Z,24.27
2018-03-26T13:32:16.886Z,26.53
2018-03-26T13:34:44.497Z,26.03
2018-03-26T13:37:12.887Z,24.07
2018-03-26T13:39:41.263Z,26.70
2018-03-26T13:42:09.183Z,26.27
2018-03-26T13:44:36.790Z,24.83
2018-03-26T13:47:04.353Z,27.73
2018-03-26T13:49:31.994Z,24.13
2018-03-26T13:51:59.594Z,26.50
2018-03-26T13:54:27.198Z,27.87
2018-03-26T13:56:54.813Z,28.00
2018-03-26T13:59:22.438Z,26.33
2018-03-26T14:01:50.036Z,26.07
2018-03-26T14:04:19.188Z,25.40
2018-03-26T14:06:46.975Z,25.80
2018-03-26T14:09:26.477Z,24.37
2018-03-26T14:12:06.645Z,25.40
2018-03-26T14:14:45.941Z,26.50
2018-03-26T14:17:25.416Z,25.50
2018-03-26T14:19:53.107Z,23.67
2018-03-26T14:22:20.722Z,24.40
2018-03-26T14:24:48.335Z,24.20
2018-03-26T14:27:15.952Z,25.87
2018-03-26T14:29:43.547Z,24.40
2018-03-26T14:32:11.251Z,26.23
2018-03-26T14:34:38.850Z,29.60
2018-03-26T14:37:06.459Z,30.67
2018-03-26T14:39:34.141Z,27.80
2018-03-26T14:42:01.754Z,25.03
2018-03-26T14:44:30.133Z,22.93
2018-03-26T14:46:57.734Z,42.70
2018-03-26T14:49:25.381Z,29.30
2018-03-26T14:51:53.032Z,28.40
2018-03-26T14:54:21.517Z,24.67
2018-03-26T14:56:49.905Z,23.27
2018-03-26T14:59:18.288Z,26.40
2018-03-26T15:01:46.661Z,27.97
2018-03-26T15:04:15.048Z,26.77
2018-03-26T15:06:43.486Z,23.67
2018-03-26T15:09:11.105Z,26.80
2018-03-26T15:11:39.513Z,24.47
2018-03-26T15:14:07.211Z,24.90
2018-03-26T15:16:34.828Z,25.77
2018-03-26T15:19:02.454Z,25.70
2018-03-26T15:21:30.073Z,26.30
2018-03-26T15:23:57.927Z,28.43
2018-03-26T15:26:26.324Z,27.73
2018-03-26T15:28:53.953Z,27.57
2018-03-26T15:31:21.561Z,27.03
2018-03-26T15:33:49.139Z,28.13
2018-03-26T15:36:16.793Z,27.83
2018-03-26T15:38:44.400Z,27.77
2018-03-26T15:41:12.037Z,27.63
2018-03-26T15:43:39.665Z,31.00
2018-03-26T15:46:08.066Z,29.30
2018-03-26T15:48:36.477Z,32.60
2018-03-26T15:51:04.205Z,28.57
2018-03-26T15:53:32.606Z,29.17
2018-03-26T15:56:00.220Z,32.23
2018-03-26T15:58:27.865Z,27.93
2018-03-26T16:00:55.483Z,28.73
2018-03-26T16:03:24.376Z,30.07
2018-03-26T16:05:52.771Z,29.00
2018-03-26T16:08:21.208Z,31.37
2018-03-26T16:10:48.841Z,32.43
2018-03-26T16:13:16.461Z,31.43
2018-03-26T16:15:44.915Z,31.87
2018-03-26T16:18:12.547Z,32.97
2018-03-26T16:20:40.210Z,32.37
2018-03-26T16:23:07.831Z,31.87
2018-03-26T16:25:35.427Z,34.37
2018-03-26T16:28:03.847Z,33.97
2018-03-26T16:30:31.479Z,40.60
2018-03-26T16:32:59.886Z,103.07
2018-03-26T16:35:27.541Z,39.80
2018-03-26T16:37:55.975Z,35.63
2018-03-26T16:40:23.655Z,33.67
2018-03-26T16:42:53.915Z,32.90
2018-03-26T16:45:21.577Z,32.37
2018-03-26T16:47:49.940Z,31.97
2018-03-26T16:50:18.512Z,33.80
2018-03-26T16:52:46.162Z,34.23
2018-03-26T16:55:13.826Z,31.70
2018-03-26T16:57:41.425Z,32.03
2018-03-26T17:00:09.056Z,33.27
2018-03-26T17:02:36.746Z,30.03
2018-03-26T17:05:05.423Z,29.20
2018-03-26T17:07:33.110Z,27.20
2018-03-26T17:10:00.739Z,29.00
2018-03-26T17:12:28.372Z,27.17
2018-03-26T17:14:56.106Z,27.93
2018-03-26T17:17:23.724Z,28.20
2018-03-26T17:19:51.363Z,29.00
2018-03-26T17:22:19.763Z,29.20
2018-03-26T17:24:48.251Z,29.93
2018-03-26T17:27:16.714Z,30.67
2018-03-26T17:29:45.117Z,31.20
2018-03-26T17:32:13.649Z,31.20
2018-03-26T17:34:41.274Z,32.13
2018-03-26T17:37:09.691Z,30.17
2018-03-26T17:39:37.326Z,28.30
2018-03-26T17:42:04.959Z,31.33
2018-03-26T17:44:32.775Z,31.10
2018-03-26T17:47:00.422Z,31.97
2018-03-26T17:49:28.139Z,33.00
2018-03-26T17:51:56.571Z,32.50
2018-03-26T17:54:25.137Z,32.43
2018-03-26T17:56:52.801Z,31.10
2018-03-26T17:59:21.276Z,29.77
2018-03-26T18:01:49.025Z,31.30
2018-03-26T18:04:16.725Z,31.80
2018-03-26T18:06:44.431Z,31.80
2018-03-26T18:09:12.581Z,34.33
2018-03-26T18:11:41.261Z,32.30
2018-03-26T18:14:08.929Z,31.93
2018-03-26T18:16:36.595Z,33.70
2018-03-26T18:19:05.026Z,32.70
2018-03-26T18:21:33.293Z,34.30
2018-03-26T18:24:01.062Z,33.50
2018-03-26T18:26:28.864Z,29.50
2018-03-26T18:28:56.566Z,32.27
2018-03-26T18:31:24.325Z,31.63
2018-03-26T18:33:52.094Z,33.97
2018-03-26T18:36:20.110Z,34.43
2018-03-26T18:38:47.852Z,40.00
2018-03-26T18:41:16.354Z,53.50
2018-03-26T18:43:44.834Z,42.77
2018-03-26T18:46:13.326Z,41.07
2018-03-26T18:48:41.257Z,39.13
2018-03-26T18:51:10.525Z,42.30
2018-03-26T18:53:38.308Z,53.50
2018-03-26T18:56:06.281Z,48.33
2018-03-26T18:58:34.052Z,47.97
2018-03-26T19:01:01.950Z,47.93
2018-03-26T19:03:30.135Z,55.13
2018-03-26T19:05:59.413Z,75.87
2018-03-26T19:08:27.982Z,55.87
2018-03-26T19:10:55.870Z,34.60
2018-03-26T19:13:24.001Z,36.50
2018-03-26T19:15:51.912Z,34.67
2018-03-26T19:18:19.804Z,38.27
2018-03-26T19:20:48.263Z,36.20
2018-03-26T19:23:16.603Z,37.00
2018-03-26T19:25:47.828Z,37.67
2018-03-26T19:28:15.798Z,51.13
2018-03-26T19:30:43.657Z,49.50
2018-03-26T19:33:11.514Z,50.73
2018-03-26T19:35:40.071Z,44.73
2018-03-26T19:38:07.881Z,39.43
2018-03-26T19:40:36.219Z,46.03
2018-03-26T19:43:03.961Z,34.23
2018-03-26T19:45:31.701Z,39.97
2018-03-26T19:47:59.441Z,49.97
2018-03-26T19:50:27.066Z,61.97
2018-03-26T19:52:56.259Z,68.03
2018-03-26T19:55:23.904Z,53.23
2018-03-26T19:57:51.546Z,55.20
2018-03-26T20:00:20.804Z,54.73
2018-03-26T20:02:48.537Z,48.83
2018-03-26T20:05:16.520Z,53.90
2018-03-26T20:07:44.472Z,46.60
2018-03-26T20:10:12.142Z,39.50
2018-03-26T20:12:39.852Z,30.73
2018-03-26T20:15:07.541Z,30.00
2018-03-26T20:17:36.704Z,29.83
2018-03-26T20:20:04.383Z,28.20
2018-03-26T20:22:32.879Z,28.40
2018-03-26T20:25:00.638Z,28.50
2018-03-26T20:27:28.328Z,29.07
2018-03-26T20:29:56.846Z,29.17
2018-03-26T20:32:24.535Z,30.93
2018-03-26T20:34:52.250Z,33.07
2018-03-26T20:37:20.705Z,33.80
2018-03-26T20:39:48.489Z,32.90
2018-03-26T20:42:16.311Z,31.10
2018-03-26T20:44:43.973Z,33.80
2018-03-26T20:47:11.655Z,36.50
2018-03-26T20:49:39.323Z,36.90
2018-03-26T20:52:07.001Z,34.60
2018-03-26T20:54:35.021Z,38.00
2018-03-26T20:57:03.445Z,37.00
2018-03-26T20:59:31.474Z,35.00
2018-03-26T21:01:59.968Z,36.13
2018-03-26T21:04:28.488Z,34.70
2018-03-26T21:06:56.214Z,39.93
2018-03-26T21:09:24.609Z,41.93
2018-03-26T21:11:53.027Z,40.73
2018-03-26T21:14:20.655Z,44.17
2018-03-26T21:16:49.147Z,44.23
2018-03-26T21:19:17.547Z,44.90
2018-03-26T21:21:45.177Z,43.70
2018-03-26T21:24:13.571Z,43.43
2018-03-26T21:26:42.006Z,44.50
2018-03-26T21:29:09.812Z,46.47
2018-03-26T21:31:37.438Z,45.97
2018-03-26T21:34:05.035Z,46.03
2018-03-26T21:36:32.668Z,42.20
2018-03-26T21:39:00.290Z,48.00
2018-03-26T21:41:29.329Z,39.87
2018-03-26T21:43:56.947Z,39.50
2018-03-26T21:46:25.349Z,43.27
2018-03-26T21:48:53.713Z,41.23
2018-03-26T21:51:21.347Z,47.40
2018-03-26T21:53:49.077Z,51.30
2018-03-26T21:56:16.715Z,44.13
2018-03-26T21:58:45.115Z,48.13
2018-03-26T22:01:14.351Z,44.73
2018-03-26T22:03:41.969Z,39.83
2018-03-26T22:06:09.581Z,39.73
2018-03-26T22:08:37.212Z,41.70
2018-03-26T22:11:05.781Z,41.97
2018-03-26T22:13:33.382Z,42.77
2018-03-26T22:16:00.994Z,42.33
2018-03-26T22:18:28.582Z,41.27
2018-03-26T22:20:56.191Z,44.17
2018-03-26T22:23:23.783Z,41.03
2018-03-26T22:25:51.398Z,42.27
2018-03-26T22:28:19.790Z,46.40
2018-03-26T22:30:47.474Z,44.10
2018-03-26T22:33:15.086Z,46.23
2018-03-26T22:35:42.663Z,43.90
2018-03-26T22:38:11.045Z,49.27
2018-03-26T22:40:38.674Z,47.00
2018-03-26T22:43:06.522Z,48.97
2018-03-26T22:45:34.134Z,48.57
2018-03-26T22:48:01.745Z,50.50
2018-03-26T22:50:29.329Z,51.97
2018-03-26T22:52:57.156Z,50.77
2018-03-26T22:55:25.569Z,49.93
2018-03-26T22:57:53.243Z,52.37
2018-03-26T23:00:21.523Z,50.57
2018-03-26T23:02:49.140Z,54.00
2018-03-26T23:05:16.806Z,53.00
2018-03-26T23:07:45.188Z,53.43
2018-03-26T23:10:13.584Z,54.93
2018-03-26T23:12:41.995Z,49.50
2018-03-26T23:15:09.782Z,53.77
2018-03-26T23:17:37.395Z,53.13
2018-03-26T23:20:04.984Z,52.80
2018-03-26T23:22:45.296Z,49.50
2018-03-26T23:25:12.908Z,52.37
2018-03-26T23:27:41.324Z,55.67
2018-03-26T23:30:08.995Z,57.90
2018-03-26T23:32:36.637Z,54.87
2018-03-26T23:35:04.260Z,48.97
2018-03-26T23:37:33.361Z,54.63
2018-03-26T23:40:01.747Z,55.87
2018-03-26T23:42:30.137Z,54.47
2018-03-26T23:44:58.870Z,53.40
2018-03-26T23:47:26.529Z,54.70
2018-03-26T23:49:54.139Z,53.20
2018-03-26T23:52:21.764Z,52.27
2018-03-26T23:54:49.393Z,51.43
2018-03-26T23:57:17.770Z,49.57
2018-03-26T23:59:46.139Z,51.63
